createdAt,value
2022-11-20T00:01:31.846Z,64.19
2022-11-20T00:03:59.568Z,55.60
2022-11-20T00:06:28.239Z,51.54
2022-11-20T00:08:58.531Z,52.90
2022-11-20T00:11:28.057Z,55.33
2022-11-20T00:13:57.835Z,58.17
2022-11-20T00:16:27.416Z,59.96
2022-11-20T00:18:55.376Z,66.56
2022-11-20T00:21:25.975Z,71.80
2022-11-20T00:23:55.995Z,67.02
2022-11-20T00:26:25.566Z,63.04
2022-11-20T00:28:59.827Z,54.06
2022-11-20T00:31:28.196Z,50.41
2022-11-20T00:33:55.215Z,51.46
2022-11-20T00:36:26.153Z,53.73
2022-11-20T00:38:58.800Z,55.14
2022-11-20T00:41:28.448Z,57.29
2022-11-20T00:43:56.498Z,59.32
2022-11-20T00:46:26.577Z,65.64
2022-11-20T00:48:53.992Z,72.08
2022-11-20T00:51:24.429Z,66.85
2022-11-20T00:53:51.610Z,62.56
2022-11-20T00:56:20.040Z,53.71
2022-11-20T00:58:49.197Z,50.24
2022-11-20T01:01:22.118Z,51.34
2022-11-20T01:03:51.916Z,53.65
2022-11-20T01:06:31.091Z,56.42
2022-11-20T01:09:01.623Z,57.28
2022-11-20T01:11:32.229Z,59.54
2022-11-20T01:14:02.267Z,66.71
2022-11-20T01:16:36.946Z,72.37
2022-11-20T01:19:07.946Z,66.53
2022-11-20T01:21:38.653Z,62.72
2022-11-20T01:24:10.944Z,54.94
2022-11-20T01:26:40.934Z,50.92
2022-11-20T01:29:14.389Z,52.16
2022-11-20T01:31:42.106Z,53.46
2022-11-20T01:34:19.712Z,55.61
2022-11-20T01:36:47.204Z,57.90
2022-11-20T01:39:19.144Z,61.48
2022-11-20T01:42:09.829Z,68.95
2022-11-20T01:44:58.870Z,71.84
2022-11-20T01:47:46.046Z,65.91
2022-11-20T01:50:21.725Z,60.47
2022-11-20T01:53:15.525Z,51.32
2022-11-20T01:55:53.557Z,48.53
2022-11-20T01:58:30.609Z,50.45
2022-11-20T02:00:57.432Z,52.52
2022-11-20T02:03:25.068Z,53.88
2022-11-20T02:06:04.298Z,56.61
2022-11-20T02:08:32.808Z,58.55
2022-11-20T02:10:59.284Z,60.50
2022-11-20T02:13:44.034Z,66.78
2022-11-20T02:16:21.639Z,73.46
2022-11-20T02:18:49.063Z,68.77
2022-11-20T02:21:30.600Z,60.77
2022-11-20T02:24:14.301Z,52.47
2022-11-20T02:27:05.570Z,49.32
2022-11-20T02:29:45.049Z,50.62
2022-11-20T02:32:32.097Z,52.88
2022-11-20T02:35:06.338Z,55.08
2022-11-20T02:37:39.195Z,56.96
2022-11-20T02:40:06.807Z,58.19
2022-11-20T02:42:33.343Z,59.83
2022-11-20T02:44:59.854Z,66.68
2022-11-20T02:47:26.359Z,74.11
2022-11-20T02:49:52.900Z,68.03
2022-11-20T02:52:19.399Z,61.91
2022-11-20T02:54:45.935Z,53.78
2022-11-20T02:57:12.557Z,49.42
2022-11-20T02:59:39.050Z,50.50
2022-11-20T03:02:05.639Z,52.76
2022-11-20T03:04:32.326Z,56.01
2022-11-20T03:06:58.990Z,58.26
2022-11-20T03:09:25.646Z,59.77
2022-11-20T03:11:52.127Z,67.76
2022-11-20T03:14:18.651Z,73.23
2022-11-20T03:16:45.168Z,67.88
2022-11-20T03:19:12.717Z,60.74
2022-11-20T03:21:39.612Z,49.61
2022-11-20T03:24:07.072Z,47.52
2022-11-20T03:26:33.875Z,48.51
2022-11-20T03:29:04.602Z,51.25
2022-11-20T03:31:38.349Z,53.12
2022-11-20T03:34:04.965Z,54.58
2022-11-20T03:36:31.573Z,57.33
2022-11-20T03:38:58.123Z,58.48
2022-11-20T03:41:28.723Z,59.72
2022-11-20T03:43:59.597Z,66.35
2022-11-20T03:46:28.223Z,74.03
2022-11-20T03:48:55.667Z,64.87
2022-11-20T03:51:25.997Z,53.44
2022-11-20T03:53:56.128Z,49.50
2022-11-20T03:56:32.333Z,51.19
2022-11-20T03:58:59.078Z,51.85
2022-11-20T04:01:30.372Z,53.15
2022-11-20T04:03:57.799Z,54.86
2022-11-20T04:06:29.433Z,55.48
2022-11-20T04:08:58.462Z,56.80
2022-11-20T04:11:32.666Z,57.91
2022-11-20T04:14:04.119Z,65.37
2022-11-20T04:16:35.412Z,72.77
2022-11-20T04:19:07.317Z,63.48
2022-11-20T04:21:34.120Z,52.73
2022-11-20T04:24:00.749Z,49.59
2022-11-20T04:26:29.837Z,50.35
2022-11-20T04:28:57.816Z,52.09
2022-11-20T04:31:28.648Z,53.49
2022-11-20T04:33:55.572Z,54.46
2022-11-20T04:36:26.488Z,55.65
2022-11-20T04:38:57.336Z,56.81
2022-11-20T04:41:28.211Z,57.83
2022-11-20T04:44:03.548Z,59.24
2022-11-20T04:46:35.306Z,67.42
2022-11-20T04:49:01.976Z,70.86
2022-11-20T04:51:29.091Z,61.67
2022-11-20T04:53:56.105Z,52.42
2022-11-20T04:56:23.004Z,49.19
2022-11-20T04:58:49.673Z,51.32
2022-11-20T05:01:20.916Z,53.12
2022-11-20T05:03:48.293Z,55.01
2022-11-20T05:06:18.368Z,56.87
2022-11-20T05:08:45.053Z,58.50
2022-11-20T05:11:21.047Z,59.87
2022-11-20T05:13:49.221Z,68.04
2022-11-20T05:16:23.649Z,71.61
2022-11-20T05:18:53.546Z,64.40
2022-11-20T05:21:21.177Z,57.17
2022-11-20T05:23:48.246Z,51.15
2022-11-20T05:26:19.835Z,51.52
2022-11-20T05:28:47.511Z,53.97
2022-11-20T05:31:26.216Z,55.55
2022-11-20T05:33:55.568Z,56.26
2022-11-20T05:36:22.193Z,57.48
2022-11-20T05:38:50.888Z,58.89
2022-11-20T05:41:20.532Z,66.48
2022-11-20T05:43:50.048Z,72.30
2022-11-20T05:46:26.436Z,63.24
2022-11-20T05:48:54.731Z,52.40
2022-11-20T05:51:21.287Z,49.78
2022-11-20T05:53:48.959Z,51.24
2022-11-20T05:56:19.167Z,52.65
2022-11-20T05:58:46.389Z,53.74
2022-11-20T06:01:23.350Z,55.03
2022-11-20T06:03:51.031Z,55.72
2022-11-20T06:06:19.292Z,56.77
2022-11-20T06:08:46.349Z,57.34
2022-11-20T06:11:15.484Z,58.88
2022-11-20T06:13:43.140Z,66.32
2022-11-20T06:16:12.492Z,74.95
2022-11-20T06:18:39.535Z,69.02
2022-11-20T06:21:20.212Z,63.28
2022-11-20T06:23:48.462Z,57.61
2022-11-20T06:26:25.867Z,51.08
2022-11-20T06:28:54.200Z,51.65
2022-11-20T06:31:24.426Z,54.37
2022-11-20T06:33:52.727Z,57.40
2022-11-20T06:36:23.204Z,59.46
2022-11-20T06:38:50.076Z,66.84
2022-11-20T06:41:20.375Z,73.50
2022-11-20T06:43:48.140Z,63.43
2022-11-20T06:46:19.436Z,54.53
2022-11-20T06:48:47.440Z,51.10
2022-11-20T06:51:14.729Z,52.14
2022-11-20T06:53:41.277Z,54.26
2022-11-20T06:56:08.568Z,56.23
2022-11-20T06:58:36.742Z,57.76
2022-11-20T07:01:11.068Z,60.22
2022-11-20T07:03:38.668Z,67.19
2022-11-20T07:06:06.565Z,74.82
2022-11-20T07:08:34.431Z,71.45
2022-11-20T07:11:05.607Z,65.12
2022-11-20T07:13:33.447Z,54.30
2022-11-20T07:16:03.048Z,48.54
2022-11-20T07:18:30.130Z,49.91
2022-11-20T07:20:56.733Z,52.41
2022-11-20T07:23:23.291Z,54.98
2022-11-20T07:25:50.001Z,56.71
2022-11-20T07:28:16.578Z,58.32
2022-11-20T07:30:43.127Z,60.26
2022-11-20T07:33:09.618Z,67.92
2022-11-20T07:35:36.381Z,72.54
2022-11-20T07:38:03.117Z,63.60
2022-11-20T07:40:29.751Z,53.26
2022-11-20T07:42:56.698Z,49.40
2022-11-20T07:45:24.705Z,50.73
2022-11-20T07:47:51.809Z,52.00
2022-11-20T07:50:20.118Z,52.46
2022-11-20T07:52:47.683Z,54.69
2022-11-20T07:55:15.412Z,56.64
2022-11-20T07:57:42.305Z,58.41
2022-11-20T08:00:12.037Z,65.24
2022-11-20T08:02:40.520Z,71.85
2022-11-20T08:05:09.604Z,61.48
2022-11-20T08:07:42.906Z,51.44
2022-11-20T08:10:13.296Z,48.58
2022-11-20T08:13:10.746Z,48.81
2022-11-20T08:15:39.787Z,49.43
2022-11-20T08:21:03.765Z,52.90
2022-11-20T08:23:30.805Z,56.46
2022-11-20T08:25:57.414Z,59.12
2022-11-20T08:28:24.010Z,65.85
2022-11-20T08:30:50.616Z,70.08
2022-11-20T08:33:17.929Z,62.37
2022-11-20T08:35:44.808Z,55.28
2022-11-20T08:38:11.366Z,49.32
2022-11-20T08:40:37.971Z,51.66
2022-11-20T08:43:04.801Z,53.58
2022-11-20T08:45:34.500Z,54.61
2022-11-20T08:48:05.604Z,56.80
2022-11-20T08:50:33.323Z,59.30
2022-11-20T08:53:05.296Z,66.27
2022-11-20T08:55:31.950Z,68.75
2022-11-20T08:58:11.709Z,56.22
2022-11-20T09:00:38.659Z,51.35
2022-11-20T09:03:05.276Z,52.66
2022-11-20T09:05:31.864Z,54.96
2022-11-20T09:07:59.765Z,56.23
2022-11-20T09:10:28.094Z,57.49
2022-11-20T09:12:58.510Z,57.96
2022-11-20T09:15:26.356Z,64.70
2022-11-20T09:18:03.869Z,72.38
2022-11-20T09:20:33.793Z,67.85
2022-11-20T09:23:00.286Z,56.53
2022-11-20T09:25:27.435Z,50.51
2022-11-20T09:27:59.357Z,51.43
2022-11-20T09:30:27.354Z,52.66
2022-11-20T09:32:54.290Z,54.20
2022-11-20T09:35:20.838Z,55.32
2022-11-20T09:37:47.364Z,57.43
2022-11-20T09:40:29.859Z,59.06
2022-11-20T09:43:11.026Z,59.81
2022-11-20T09:46:07.255Z,69.33
2022-11-20T09:48:58.226Z,74.22
2022-11-20T09:52:05.305Z,66.41
2022-11-20T09:54:38.856Z,56.17
2022-11-20T09:57:22.255Z,52.77
2022-11-20T10:00:00.964Z,54.19
2022-11-20T10:02:40.798Z,55.48
2022-11-20T10:05:20.049Z,57.80
2022-11-20T10:08:17.825Z,59.84
2022-11-20T10:10:53.631Z,69.11
2022-11-20T10:13:50.938Z,69.74
2022-11-20T10:16:37.997Z,65.55
2022-11-20T10:19:40.023Z,55.94
2022-11-20T10:22:36.075Z,51.05
2022-11-20T10:25:16.236Z,51.85
2022-11-20T10:28:11.947Z,54.11
2022-11-20T10:30:43.462Z,56.11
2022-11-20T10:33:24.572Z,58.86
2022-11-20T10:36:27.884Z,60.98
2022-11-20T10:39:04.259Z,70.78
2022-11-20T10:41:39.665Z,71.26
2022-11-20T10:44:37.408Z,64.79
2022-11-20T10:47:10.757Z,55.70
2022-11-20T10:49:37.357Z,51.06
2022-11-20T10:52:33.062Z,52.30
2022-11-20T10:55:26.034Z,53.18
2022-11-20T10:58:10.583Z,55.08
2022-11-20T11:00:37.158Z,57.35
2022-11-20T11:03:15.140Z,59.27
2022-11-20T11:05:56.102Z,61.66
2022-11-20T11:08:28.584Z,70.36
2022-11-20T11:11:03.613Z,71.87
2022-11-20T11:13:31.386Z,65.96
2022-11-20T11:15:59.465Z,55.89
2022-11-20T11:18:33.877Z,51.26
2022-11-20T11:21:04.793Z,51.86
2022-11-20T11:23:39.501Z,54.10
2022-11-20T11:26:25.456Z,55.39
2022-11-20T11:29:04.044Z,57.82
2022-11-20T11:31:34.834Z,59.25
2022-11-20T11:34:17.552Z,61.20
2022-11-20T11:36:57.623Z,70.44
2022-11-20T11:39:26.053Z,73.22
2022-11-20T11:41:53.940Z,65.51
2022-11-20T11:44:44.369Z,57.32
2022-11-20T11:47:29.685Z,51.13
2022-11-20T11:50:11.697Z,51.87
2022-11-20T11:53:02.676Z,54.43
2022-11-20T11:55:43.543Z,55.73
2022-11-20T11:58:24.648Z,58.91
2022-11-20T12:01:28.603Z,67.41
2022-11-20T12:04:46.141Z,71.44
2022-11-20T12:07:45.968Z,64.86
2022-11-20T12:10:35.374Z,52.99
2022-11-20T12:13:30.680Z,49.44
2022-11-20T12:15:57.303Z,50.42
2022-11-20T12:18:23.879Z,53.02
2022-11-20T12:20:56.140Z,55.56
2022-11-20T12:23:40.002Z,57.48
2022-11-20T12:26:29.421Z,59.33
2022-11-20T12:29:18.490Z,66.57
2022-11-20T12:32:32.518Z,70.13
2022-11-20T12:35:17.366Z,65.70
2022-11-20T12:38:20.865Z,59.45
2022-11-20T12:41:44.330Z,49.83
2022-11-20T12:44:56.336Z,49.85
2022-11-20T12:47:50.550Z,52.32
2022-11-20T12:50:47.568Z,54.86
2022-11-20T12:53:48.482Z,58.16
2022-11-20T12:57:08.960Z,66.74
2022-11-20T13:00:06.468Z,68.59
2022-11-20T13:03:19.724Z,62.04
2022-11-20T13:06:19.862Z,52.37
2022-11-20T13:08:56.309Z,51.04
2022-11-20T13:11:40.623Z,54.15
2022-11-20T13:14:13.439Z,55.98
2022-11-20T13:17:08.618Z,58.49
2022-11-20T13:19:35.823Z,66.61
2022-11-20T13:22:02.819Z,69.34
2022-11-20T13:24:32.416Z,62.25
2022-11-20T13:27:14.228Z,54.18
2022-11-20T13:29:45.474Z,50.52
2022-11-20T13:32:21.718Z,53.31
2022-11-20T13:34:53.905Z,56.18
2022-11-20T13:37:39.682Z,58.46
2022-11-20T13:40:09.066Z,60.46
2022-11-20T13:42:44.933Z,67.43
2022-11-20T13:45:29.151Z,70.09
2022-11-20T13:47:59.587Z,66.11
2022-11-20T13:50:49.372Z,60.83
2022-11-20T13:53:52.705Z,52.03
2022-11-20T13:56:48.107Z,49.97
2022-11-20T13:59:50.278Z,53.06
2022-11-20T14:02:20.256Z,56.79
2022-11-20T14:04:51.735Z,59.11
2022-11-20T14:07:22.641Z,61.52
2022-11-20T14:09:56.763Z,68.61
2022-11-20T14:12:30.440Z,74.02
2022-11-20T14:14:57.549Z,68.13
2022-11-20T14:17:33.053Z,63.54
2022-11-20T14:20:07.325Z,54.78
2022-11-20T14:22:33.892Z,50.58
2022-11-20T14:25:23.549Z,52.07
2022-11-20T14:27:59.792Z,55.02
2022-11-20T14:30:44.356Z,58.04
2022-11-20T14:33:14.592Z,65.37
2022-11-20T14:35:47.681Z,69.20
2022-11-20T14:38:19.042Z,64.05
2022-11-20T14:40:46.280Z,55.91
2022-11-20T14:43:26.865Z,52.61
2022-11-20T14:46:02.701Z,54.06
2022-11-20T14:48:35.985Z,55.94
2022-11-20T14:51:02.609Z,58.40
2022-11-20T14:53:29.151Z,65.24
2022-11-20T14:56:02.183Z,70.00
2022-11-20T14:58:34.195Z,67.60
2022-11-20T15:01:08.086Z,62.92
2022-11-20T15:03:38.586Z,54.52
2022-11-20T15:06:08.376Z,50.67
2022-11-20T15:08:35.639Z,52.77
2022-11-20T15:11:03.068Z,55.78
2022-11-20T15:13:38.120Z,58.41
2022-11-20T15:16:19.213Z,65.36
2022-11-20T15:18:46.661Z,69.52
2022-11-20T15:21:19.622Z,65.56
2022-11-20T15:23:46.181Z,61.26
2022-11-20T15:26:20.245Z,53.60
2022-11-20T15:28:50.453Z,50.37
2022-11-20T15:31:22.129Z,52.74
2022-11-20T15:33:49.537Z,55.03
2022-11-20T15:36:16.204Z,57.87
2022-11-20T15:38:42.868Z,60.51
2022-11-20T15:41:45.218Z,67.52
2022-11-20T15:47:41.091Z,66.85
2022-11-20T15:50:18.277Z,61.12
2022-11-20T15:52:51.230Z,52.64
2022-11-20T15:55:17.735Z,50.77
2022-11-20T15:57:44.312Z,52.98
2022-11-20T16:00:12.035Z,55.78
2022-11-20T16:02:40.453Z,57.88
2022-11-20T16:05:12.769Z,59.54
2022-11-20T16:07:39.641Z,66.69
2022-11-20T16:10:06.703Z,71.59
2022-11-20T16:12:53.601Z,66.84
2022-11-20T16:15:39.079Z,63.50
2022-11-20T16:18:07.104Z,54.43
2022-11-20T16:20:33.860Z,50.72
2022-11-20T16:23:00.431Z,52.73
2022-11-20T16:25:28.384Z,55.02
2022-11-20T16:27:54.977Z,57.51
2022-11-20T16:30:21.724Z,60.09
2022-11-20T16:32:48.626Z,67.95
2022-11-20T16:35:15.373Z,72.15
2022-11-20T16:37:43.423Z,66.14
2022-11-20T16:40:11.607Z,61.52
2022-11-20T16:42:44.348Z,53.40
2022-11-20T16:45:11.341Z,50.61
2022-11-20T16:47:38.565Z,52.48
2022-11-20T16:50:11.147Z,55.54
2022-11-20T16:52:40.655Z,57.28
2022-11-20T16:55:08.212Z,60.06
2022-11-20T16:57:37.565Z,67.60
2022-11-20T17:00:07.625Z,69.48
2022-11-20T17:02:34.363Z,65.60
2022-11-20T17:05:03.092Z,63.39
2022-11-20T17:07:30.240Z,60.99
2022-11-20T17:09:57.678Z,55.89
2022-11-20T17:12:25.904Z,53.02
2022-11-20T17:14:53.163Z,54.47
2022-11-20T17:17:20.389Z,56.17
2022-11-20T17:19:47.406Z,58.11
2022-11-20T17:22:14.346Z,63.92
2022-11-20T17:24:40.997Z,69.91
2022-11-20T17:27:12.993Z,65.71
2022-11-20T17:29:42.448Z,60.87
2022-11-20T17:32:09.043Z,53.60
2022-11-20T17:34:38.514Z,50.89
2022-11-20T17:37:13.312Z,52.40
2022-11-20T17:39:44.355Z,54.53
2022-11-20T17:42:36.541Z,56.48
2022-11-20T17:45:05.972Z,58.04
2022-11-20T17:47:39.205Z,65.10
2022-11-20T17:50:06.765Z,70.26
2022-11-20T17:52:33.605Z,67.47
2022-11-20T17:55:00.110Z,65.05
2022-11-20T17:57:48.348Z,55.54
2022-11-20T18:00:16.734Z,51.56
2022-11-20T18:02:43.732Z,52.84
2022-11-20T18:05:10.619Z,55.22
2022-11-20T18:07:41.931Z,57.41
2022-11-20T18:10:09.487Z,59.35
2022-11-20T18:12:44.805Z,66.56
2022-11-20T18:15:11.352Z,71.77
2022-11-20T18:17:41.143Z,67.10
2022-11-20T18:23:01.400Z,52.30
2022-11-20T18:25:27.953Z,50.14
2022-11-20T18:27:57.240Z,52.03
2022-11-20T18:30:24.098Z,54.12
2022-11-20T18:32:50.875Z,56.20
2022-11-20T18:35:17.554Z,58.37
2022-11-20T18:37:44.076Z,65.80
2022-11-20T18:40:11.502Z,70.50
2022-11-20T18:42:56.982Z,64.32
2022-11-20T18:45:23.640Z,55.73
2022-11-20T18:47:50.151Z,51.39
2022-11-20T18:50:16.699Z,52.29
2022-11-20T18:52:47.466Z,54.81
2022-11-20T18:55:25.543Z,56.38
2022-11-20T18:57:53.730Z,58.86
2022-11-20T19:00:26.389Z,67.13
2022-11-20T19:02:55.978Z,71.65
2022-11-20T19:05:27.474Z,65.00
2022-11-20T19:08:00.204Z,56.27
2022-11-20T19:10:28.013Z,51.49
2022-11-20T19:12:58.864Z,52.69
2022-11-20T19:15:29.053Z,55.21
2022-11-20T19:18:04.459Z,57.75
2022-11-20T19:20:36.423Z,59.09
2022-11-20T19:23:03.159Z,66.07
2022-11-20T19:25:36.647Z,70.63
2022-11-20T19:28:07.889Z,65.33
2022-11-20T19:30:34.572Z,62.08
2022-11-20T19:33:01.468Z,55.66
2022-11-20T19:35:29.658Z,53.17
2022-11-20T19:38:05.497Z,54.71
2022-11-20T19:40:40.315Z,55.95
2022-11-20T19:43:06.797Z,57.77
2022-11-20T19:45:34.512Z,59.69
2022-11-20T19:48:08.112Z,66.38
2022-11-20T19:50:35.481Z,71.64
2022-11-20T19:53:03.851Z,67.73
2022-11-20T19:55:34.373Z,63.81
2022-11-20T19:58:02.814Z,60.83
2022-11-20T20:00:33.737Z,55.24
2022-11-20T20:03:00.520Z,52.93
2022-11-20T20:05:33.555Z,54.02
2022-11-20T20:08:17.235Z,55.86
2022-11-20T20:10:43.801Z,57.45
2022-11-20T20:13:19.353Z,59.77
2022-11-20T20:15:47.297Z,65.64
2022-11-20T20:18:13.904Z,69.80
2022-11-20T20:20:58.473Z,67.47
2022-11-20T20:23:34.400Z,64.59
2022-11-20T20:26:10.741Z,61.75
2022-11-20T20:28:38.993Z,56.50
2022-11-20T20:31:16.725Z,53.39
2022-11-20T20:33:45.450Z,55.14
2022-11-20T20:36:19.854Z,58.11
2022-11-20T20:39:02.409Z,60.69
2022-11-20T20:41:30.976Z,68.29
2022-11-20T20:44:20.589Z,73.60
2022-11-20T20:46:47.191Z,65.73
2022-11-20T20:49:13.753Z,61.75
2022-11-20T20:51:40.351Z,56.91
2022-11-20T20:54:07.050Z,54.03
2022-11-20T20:56:33.999Z,55.36
2022-11-20T20:59:01.236Z,58.12
2022-11-20T21:01:29.145Z,60.61
2022-11-20T21:03:57.616Z,65.79
2022-11-20T21:06:25.626Z,69.50
2022-11-20T21:08:54.077Z,66.30
2022-11-20T21:11:21.183Z,63.86
2022-11-20T21:13:48.826Z,62.67
2022-11-20T21:16:18.835Z,60.70
2022-11-20T21:18:49.184Z,60.69
2022-11-20T21:21:50.723Z,56.67
2022-11-20T21:24:39.995Z,54.17
2022-11-20T21:27:10.539Z,56.77
2022-11-20T21:29:46.131Z,59.27
2022-11-20T21:32:17.996Z,64.57
2022-11-20T21:34:50.628Z,67.76
2022-11-20T21:37:29.568Z,66.37
2022-11-20T21:39:56.189Z,63.45
2022-11-20T21:42:26.290Z,61.82
2022-11-20T21:44:54.267Z,60.35
2022-11-20T21:47:30.765Z,56.15
2022-11-20T21:49:57.792Z,55.41
2022-11-20T21:52:30.990Z,58.26
2022-11-20T21:54:57.691Z,60.83
2022-11-20T21:57:25.041Z,67.39
2022-11-20T21:59:51.884Z,71.78
2022-11-20T22:02:19.156Z,65.65
2022-11-20T22:04:48.630Z,62.30
2022-11-20T22:07:21.289Z,54.42
2022-11-20T22:09:48.204Z,51.19
2022-11-20T22:12:20.829Z,52.61
2022-11-20T22:14:47.506Z,55.84
2022-11-20T22:17:39.113Z,58.66
2022-11-20T22:20:20.875Z,67.61
2022-11-20T22:22:49.102Z,70.79
2022-11-20T22:25:16.697Z,62.69
2022-11-20T22:27:50.825Z,54.38
2022-11-20T22:30:24.044Z,50.95
2022-11-20T22:32:53.865Z,53.99
2022-11-20T22:35:39.195Z,58.04
2022-11-20T22:38:07.622Z,60.72
2022-11-20T22:40:46.740Z,68.02
2022-11-20T22:43:20.605Z,69.02
2022-11-20T22:45:49.115Z,63.41
2022-11-20T22:48:15.997Z,55.91
2022-11-20T22:50:42.585Z,52.18
2022-11-20T22:53:09.520Z,54.08
2022-11-20T22:55:36.110Z,57.81
2022-11-20T22:58:02.598Z,59.41
2022-11-20T23:00:29.906Z,65.92
2022-11-20T23:02:56.414Z,69.90
2022-11-20T23:05:22.901Z,64.71
2022-11-20T23:07:49.403Z,61.74
2022-11-20T23:10:16.420Z,53.72
2022-11-20T23:12:42.910Z,49.75
2022-11-20T23:15:10.253Z,51.76
2022-11-20T23:17:36.797Z,54.41
2022-11-20T23:20:03.748Z,57.32
2022-11-20T23:22:32.007Z,60.57
2022-11-20T23:24:58.517Z,67.97
2022-11-20T23:27:28.303Z,71.49
2022-11-20T23:29:56.069Z,66.47
2022-11-20T23:32:23.397Z,59.09
2022-11-20T23:34:49.869Z,51.68
2022-11-20T23:37:16.501Z,51.49
2022-11-20T23:39:43.044Z,54.31
2022-11-20T23:42:09.644Z,59.31
2022-11-20T23:44:36.255Z,61.44
2022-11-20T23:47:02.913Z,68.13
2022-11-20T23:49:29.478Z,69.39
2022-11-20T23:51:56.006Z,64.69
2022-11-20T23:54:22.554Z,60.36
2022-11-20T23:56:49.797Z,53.88
2022-11-20T23:59:16.464Z,50.75
